Time;durP1;ratioP1;P1;durP2;ratioP2;P2;SDS_P1;SDS_P2;PMS_P1;PMS_P2;Temp;Humidity;BMP_temperature;BMP_pressure;BME280_temperature;BME280_humidity;BME280_pressure;Samples;Min_cycle;Max_cycle;Signal;HPM_P1;HPM_P2
2023/04/18 00:01:43;;;;;;;8.97;6.27;;;;;;;5.69;100.00;94096.25;5009870;28;20522;-62
2023/04/18 00:04:10;;;;;;;8.88;6.30;;;;;;;5.83;100.00;94101.03;5009883;28;20049;-61
2023/04/18 00:06:38;;;;;;;9.52;5.95;;;;;;;5.95;100.00;94084.38;5009485;28;20045;-63
2023/04/18 00:09:04;;;;;;;10.38;5.72;;;;;;;5.89;100.00;94086.66;5009797;28;20108;-62
2023/04/18 00:11:31;;;;;;;8.70;5.70;;;;;;;5.97;100.00;94082.06;5009306;28;20674;-63
2023/04/18 00:13:58;;;;;;;8.57;5.83;;;;;;;5.96;100.00;94078.56;5008509;28;20059;-62
2023/04/18 00:16:27;;;;;;;8.95;5.75;;;;;;;6.06;100.00;94071.59;5009933;28;20042;-61
2023/04/18 00:18:54;;;;;;;8.73;6.03;;;;;;;6.07;100.00;94067.69;5007195;28;20606;-61
2023/04/18 00:21:21;;;;;;;7.78;5.30;;;;;;;6.20;100.00;94057.25;5009441;28;20453;-61
2023/04/18 00:23:48;;;;;;;9.05;6.10;;;;;;;6.01;100.00;94063.78;5009017;28;20042;-61
2023/04/18 00:26:14;;;;;;;10.07;6.57;;;;;;;6.20;100.00;94065.44;5009502;28;20371;-62
2023/04/18 00:28:41;;;;;;;23.10;11.88;;;;;;;6.34;100.00;94061.97;5009049;28;20054;-62
2023/04/18 00:31:08;;;;;;;9.35;6.68;;;;;;;6.22;100.00;94060.38;5009278;28;20097;-61
2023/04/18 00:33:35;;;;;;;9.32;6.22;;;;;;;6.28;100.00;94063.50;5002993;28;20423;-61
2023/04/18 00:36:02;;;;;;;8.93;6.05;;;;;;;6.29;100.00;94062.34;4989523;28;20047;-62
2023/04/18 00:38:28;;;;;;;9.57;5.83;;;;;;;6.25;100.00;94061.53;5005444;28;20119;-64
2023/04/18 00:40:55;;;;;;;10.60;7.03;;;;;;;5.99;100.00;94075.06;5007247;28;20042;-62
2023/04/18 00:43:23;;;;;;;9.90;6.70;;;;;;;5.98;100.00;94070.78;5009287;28;20046;-62
2023/04/18 00:45:50;;;;;;;9.15;5.78;;;;;;;6.14;100.00;94064.25;5008770;28;20053;-62
2023/04/18 00:48:17;;;;;;;10.05;6.53;;;;;;;6.26;100.00;94065.81;5009074;28;20050;-61
2023/04/18 00:50:44;;;;;;;10.70;6.53;;;;;;;6.09;100.00;94059.16;5008605;28;20557;-62
2023/04/18 00:53:11;;;;;;;11.40;7.03;;;;;;;5.99;100.00;94066.88;5008995;28;20058;-63
2023/04/18 00:55:39;;;;;;;11.35;7.20;;;;;;;6.14;100.00;94061.50;5008336;28;20045;-64
2023/04/18 00:58:06;;;;;;;10.57;6.47;;;;;;;6.04;100.00;94063.03;5009039;28;20450;-63
2023/04/18 01:00:33;;;;;;;10.75;7.03;;;;;;;5.97;100.00;94058.31;5008450;28;20523;-61
2023/04/18 01:02:59;;;;;;;11.03;7.10;;;;;;;6.15;100.00;94054.88;5008312;28;20117;-63
2023/04/18 01:05:26;;;;;;;12.13;7.63;;;;;;;6.07;100.00;94056.78;5000007;28;20464;-61
2023/04/18 01:07:59;;;;;;;11.05;7.13;;;;;;;6.21;100.00;94056.06;5003870;28;20493;-61
2023/04/18 01:10:27;;;;;;;12.07;7.35;;;;;;;6.10;100.00;94052.53;5008585;28;20046;-63
2023/04/18 01:13:11;;;;;;;12.85;8.40;;;;;;;6.07;100.00;94048.63;5007847;28;20652;-62
2023/04/18 01:15:42;;;;;;;12.90;9.03;;;;;;;5.68;100.00;94042.97;5008181;28;20046;-63
2023/04/18 01:18:09;;;;;;;12.38;7.80;;;;;;;5.84;100.00;94048.91;5008626;28;20433;-61
2023/04/18 01:20:40;;;;;;;12.35;7.10;;;;;;;6.09;100.00;94046.28;5008137;28;20056;-61
2023/04/18 01:23:09;;;;;;;14.43;9.07;;;;;;;5.75;100.00;94045.72;5008609;28;20255;-60
2023/04/18 01:25:36;;;;;;;13.63;8.38;;;;;;;5.62;100.00;94045.28;5006197;28;20044;-60
2023/04/18 01:28:03;;;;;;;14.07;8.73;;;;;;;5.90;100.00;94043.88;5008731;28;20054;-59
2023/04/18 01:30:30;;;;;;;14.40;8.35;;;;;;;5.83;100.00;94039.16;5007549;28;20426;-59
2023/04/18 01:32:56;;;;;;;14.68;8.50;;;;;;;5.81;100.00;94033.31;5007956;28;20076;-59
2023/04/18 01:35:23;;;;;;;13.25;7.95;;;;;;;6.00;100.00;94030.31;5008287;28;20049;-60
2023/04/18 01:37:50;;;;;;;11.98;7.90;;;;;;;6.02;100.00;94029.94;5006785;28;20046;-60
2023/04/18 01:40:17;;;;;;;14.20;8.53;;;;;;;6.04;100.00;94030.34;5008379;28;20037;-59
2023/04/18 01:42:43;;;;;;;14.50;9.07;;;;;;;5.84;100.00;94032.56;5007318;28;20046;-58
2023/04/18 01:45:11;;;;;;;13.90;8.70;;;;;;;6.08;100.00;94022.97;5006796;28;20042;-59
2023/04/18 01:47:38;;;;;;;13.10;8.10;;;;;;;6.08;100.00;94022.97;5007645;28;20054;-59
2023/04/18 01:50:06;;;;;;;14.38;8.90;;;;;;;5.89;100.00;94017.78;5008025;28;20080;-61
2023/04/18 01:52:32;;;;;;;14.73;8.83;;;;;;;5.89;100.00;94015.84;5007792;28;20582;-60
2023/04/18 01:55:01;;;;;;;13.50;8.43;;;;;;;5.99;100.00;94019.78;5008108;28;20091;-59
2023/04/18 01:57:27;;;;;;;15.35;9.32;;;;;;;5.83;100.00;94013.88;5007660;28;20403;-60
2023/04/18 01:59:54;;;;;;;13.85;8.68;;;;;;;6.05;100.00;94012.03;5008233;28;20514;-60
2023/04/18 02:02:21;;;;;;;14.95;8.55;;;;;;;6.08;100.00;94016.72;5008164;28;20060;-59
2023/04/18 02:04:48;;;;;;;12.90;8.30;;;;;;;6.07;100.00;94009.72;5007469;28;20050;-59
2023/04/18 02:07:14;;;;;;;13.90;9.32;;;;;;;5.80;100.00;94020.88;5008138;28;20127;-59
2023/04/18 02:09:41;;;;;;;14.55;9.00;;;;;;;5.89;100.00;94015.06;5006026;28;20060;-60
2023/04/18 02:12:08;;;;;;;15.20;9.07;;;;;;;5.99;100.00;94012.41;5007779;28;20076;-59
2023/04/18 02:14:35;;;;;;;15.85;9.45;;;;;;;5.91;100.00;94008.06;5007566;28;20042;-59
2023/04/18 02:17:02;;;;;;;14.97;9.17;;;;;;;5.95;100.00;94008.88;5007873;28;20559;-60
2023/04/18 02:19:28;;;;;;;14.32;8.40;;;;;;;6.04;100.00;94007.75;5007184;28;20060;-61
2023/04/18 02:21:55;;;;;;;15.15;9.00;;;;;;;5.90;100.00;94006.50;5008019;28;20433;-60
2023/04/18 02:24:22;;;;;;;14.65;8.90;;;;;;;5.83;100.00;94011.91;5007682;28;20045;-61
2023/04/18 02:26:49;;;;;;;15.90;9.15;;;;;;;5.73;100.00;94007.22;5007153;28;20052;-61
2023/04/18 02:29:16;;;;;;;16.47;10.30;;;;;;;5.73;100.00;94001.75;5007761;28;20046;-59
2023/04/18 02:31:42;;;;;;;17.52;9.95;;;;;;;5.55;100.00;94013.38;5005969;28;20046;-60
2023/04/18 02:34:09;;;;;;;15.98;8.77;;;;;;;5.66;100.00;94010.69;5007625;28;20395;-61
2023/04/18 02:36:36;;;;;;;14.82;8.50;;;;;;;5.88;100.00;94011.56;5005966;28;20046;-61
2023/04/18 02:39:02;;;;;;;14.63;8.57;;;;;;;6.02;100.00;94015.50;5007535;28;20190;-61
2023/04/18 02:41:30;;;;;;;14.97;8.77;;;;;;;6.01;100.00;94012.03;4998516;28;20061;-60
2023/04/18 02:43:56;;;;;;;14.05;8.57;;;;;;;5.89;100.00;94010.38;4996859;28;20042;-60
2023/04/18 02:46:23;;;;;;;12.85;7.75;;;;;;;5.95;100.00;94006.16;5011580;28;20050;-59
2023/04/18 02:48:50;;;;;;;13.02;7.38;;;;;;;5.95;100.00;94006.16;5010808;28;20312;-60
2023/04/18 02:51:18;;;;;;;12.35;7.90;;;;;;;5.97;100.00;94005.78;5011201;28;20076;-60
2023/04/18 02:53:45;;;;;;;13.03;7.93;;;;;;;6.04;100.00;94005.81;5010454;28;20050;-61
2023/04/18 02:56:15;;;;;;;12.95;7.80;;;;;;;5.92;100.00;94001.47;5011058;28;20053;-60
2023/04/18 02:58:42;;;;;;;13.68;8.23;;;;;;;5.70;100.00;93989.69;5010597;28;20045;-61
2023/04/18 03:01:09;;;;;;;14.02;8.55;;;;;;;5.76;100.00;93998.28;5011325;28;20042;-59
2023/04/18 03:03:35;;;;;;;14.02;8.65;;;;;;;5.60;100.00;94001.31;5010160;28;20053;-58
2023/04/18 03:06:02;;;;;;;13.83;8.30;;;;;;;5.81;100.00;94000.63;5010937;28;20060;-61
2023/04/18 03:08:29;;;;;;;14.93;9.70;;;;;;;5.59;100.00;93997.03;5010542;28;20432;-64
2023/04/18 03:10:56;;;;;;;13.60;8.57;;;;;;;5.77;100.00;94000.59;5009470;28;20037;-61
2023/04/18 03:13:24;;;;;;;14.38;8.95;;;;;;;5.79;100.00;93994.78;5010872;28;20052;-63
2023/04/18 03:15:50;;;;;;;15.05;8.90;;;;;;;5.69;100.00;93992.78;5010233;28;20049;-62
2023/04/18 03:18:17;;;;;;;13.93;8.10;;;;;;;5.76;100.00;93992.84;5010800;28;20050;-62
2023/04/18 03:20:44;;;;;;;13.98;8.43;;;;;;;5.60;100.00;93996.66;5009988;28;20069;-63
2023/04/18 03:23:10;;;;;;;14.00;8.48;;;;;;;5.84;100.00;93993.66;5010697;28;20336;-63
2023/04/18 03:25:37;;;;;;;14.82;8.68;;;;;;;5.70;100.00;93991.66;5010016;28;20056;-63
2023/04/18 03:28:04;;;;;;;13.73;8.35;;;;;;;5.89;100.00;93998.72;5010726;28;20084;-63
2023/04/18 03:30:31;;;;;;;15.07;9.47;;;;;;;5.55;100.00;93990.78;5010444;28;20483;-62
2023/04/18 03:32:58;;;;;;;14.45;8.30;;;;;;;5.69;100.00;93987.34;5010237;28;20050;-62
2023/04/18 03:35:25;;;;;;;16.58;10.68;;;;;;;5.50;100.00;93986.50;5010343;28;20068;-62
2023/04/18 03:37:51;;;;;;;15.88;9.45;;;;;;;5.66;100.00;93996.31;5010067;28;20054;-62
2023/04/18 03:40:18;;;;;;;15.02;8.68;;;;;;;5.66;100.00;93982.69;5004163;28;20104;-65
2023/04/18 03:42:45;;;;;;;18.77;10.30;;;;;;;5.53;100.00;93985.75;4989423;28;20469;-61
2023/04/18 03:45:11;;;;;;;15.30;8.90;;;;;;;5.66;100.00;93988.13;5005809;28;20060;-62
2023/04/18 03:47:38;;;;;;;15.27;8.82;;;;;;;5.72;100.00;93986.59;5009652;28;20469;-61
2023/04/18 03:50:05;;;;;;;15.80;9.70;;;;;;;5.55;100.00;93986.13;5010170;28;20050;-64
2023/04/18 03:52:32;;;;;;;16.75;9.88;;;;;;;5.50;100.00;93988.44;5009247;28;20050;-61
2023/04/18 03:54:59;;;;;;;16.83;9.60;;;;;;;5.67;100.00;93982.28;5010089;28;20147;-63
2023/04/18 03:57:25;;;;;;;15.80;9.52;;;;;;;5.85;100.00;93987.03;5009824;28;20058;-61
2023/04/18 03:59:53;;;;;;;16.15;9.13;;;;;;;5.81;100.00;93984.28;5009143;28;20665;-62
2023/04/18 04:02:19;;;;;;;16.85;9.65;;;;;;;5.92;100.00;93987.84;5009790;28;20110;-63
2023/04/18 04:04:46;;;;;;;16.38;9.73;;;;;;;6.05;100.00;93982.06;5009200;28;20068;-61
2023/04/18 04:07:13;;;;;;;16.23;9.53;;;;;;;5.96;100.00;93983.22;5009938;28;20092;-62
2023/04/18 04:09:40;;;;;;;18.35;10.35;;;;;;;5.61;100.00;93981.09;5009345;28;20060;-62
2023/04/18 04:12:06;;;;;;;20.17;11.68;;;;;;;5.49;100.00;93984.91;5009244;28;20049;-61
2023/04/18 04:14:33;;;;;;;18.05;10.98;;;;;;;5.67;100.00;93987.72;5009203;28;20552;-64
2023/04/18 04:17:00;;;;;;;18.00;10.02;;;;;;;5.88;100.00;93983.56;5008207;28;20046;-63
2023/04/18 04:19:27;;;;;;;17.87;10.37;;;;;;;5.84;100.00;93977.31;5009480;28;20557;-62
2023/04/18 04:21:53;;;;;;;19.48;10.77;;;;;;;5.78;100.00;93974.19;5008788;28;20847;-63
2023/04/18 04:24:21;;;;;;;19.25;11.50;;;;;;;5.84;100.00;93986.25;5008104;28;20405;-61
2023/04/18 04:26:49;;;;;;;20.15;11.52;;;;;;;5.68;100.00;93977.63;5008987;28;20408;-62
2023/04/18 04:29:17;;;;;;;20.45;10.57;;;;;;;5.47;100.00;93986.47;5009323;28;20103;-62
2023/04/18 04:31:44;;;;;;;20.73;11.00;;;;;;;5.65;100.00;93989.28;5008944;28;20513;-61
2023/04/18 04:34:11;;;;;;;20.40;11.80;;;;;;;5.33;100.00;94000.78;5009038;28;20115;-63
2023/04/18 04:36:40;;;;;;;20.10;10.13;;;;;;;5.60;100.00;93995.88;5009248;28;20050;-63
2023/04/18 04:39:07;;;;;;;20.80;10.80;;;;;;;5.71;100.00;93991.25;5008985;28;20046;-62
2023/04/18 04:41:36;;;;;;;19.20;10.75;;;;;;;5.91;100.00;93997.16;5004592;28;20337;-62
2023/04/18 04:44:03;;;;;;;23.10;11.03;;;;;;;5.82;100.00;93994.03;4997977;28;20064;-62
2023/04/18 04:46:30;;;;;;;19.08;10.30;;;;;;;5.80;100.00;94005.31;5007672;28;20046;-65
2023/04/18 04:48:57;;;;;;;19.42;10.57;;;;;;;5.89;100.00;94004.16;5008955;28;20042;-62
2023/04/18 04:51:24;;;;;;;20.35;10.95;;;;;;;5.88;100.00;93999.91;5009125;28;20064;-62
2023/04/18 04:53:51;;;;;;;19.95;10.35;;;;;;;5.97;100.00;94001.09;5008676;28;20481;-61
2023/04/18 04:56:18;;;;;;;20.57;10.77;;;;;;;6.09;100.00;93996.47;5008737;28;20046;-62
2023/04/18 04:58:44;;;;;;;18.90;10.50;;;;;;;5.59;100.00;93995.09;5008249;28;20056;-63
2023/04/18 05:01:11;;;;;;;20.17;11.18;;;;;;;5.74;100.00;94006.06;5007541;28;20680;-62
2023/04/18 05:03:38;;;;;;;18.50;10.27;;;;;;;5.70;100.00;94013.44;5006260;28;20053;-61
2023/04/18 05:06:05;;;;;;;18.38;9.60;;;;;;;5.65;100.00;94000.94;5007490;28;20057;-62
2023/04/18 05:08:32;;;;;;;20.57;10.40;;;;;;;5.76;100.00;94007.22;5008267;28;20405;-62
2023/04/18 05:11:00;;;;;;;20.45;12.05;;;;;;;5.11;100.00;94019.69;5007053;28;20395;-64
2023/04/18 05:13:27;;;;;;;19.27;9.98;;;;;;;5.35;100.00;94006.63;5008012;28;20045;-63
2023/04/18 05:15:54;;;;;;;18.58;9.77;;;;;;;5.41;100.00;94007.81;5008502;28;20429;-62
2023/04/18 05:18:21;;;;;;;17.48;9.20;;;;;;;5.40;100.00;94012.47;5008311;28;20052;-61
2023/04/18 05:20:48;;;;;;;17.43;9.57;;;;;;;5.71;100.00;94004.84;5008081;28;20050;-62
2023/04/18 05:23:15;;;;;;;16.60;8.55;;;;;;;5.55;100.00;93996.22;5007269;28;20050;-61
2023/04/18 05:25:41;;;;;;;17.83;9.23;;;;;;;5.72;100.00;94005.66;5007706;28;20049;-63
2023/04/18 05:28:08;;;;;;;18.50;9.82;;;;;;;5.46;100.00;94010.19;5007280;28;20098;-62
2023/04/18 05:30:35;;;;;;;19.00;9.48;;;;;;;5.83;100.00;94009.19;5007728;28;20494;-61
2023/04/18 05:33:02;;;;;;;16.30;8.93;;;;;;;5.82;100.00;94001.44;5008318;28;20630;-61
2023/04/18 05:35:29;;;;;;;17.70;9.00;;;;;;;5.83;100.00;94011.16;5007912;28;20069;-61
2023/04/18 05:37:57;;;;;;;15.40;8.40;;;;;;;5.69;100.00;94012.63;4995391;28;20357;-61
2023/04/18 05:40:26;;;;;;;17.33;9.43;;;;;;;5.73;100.00;94007.97;5007975;28;20819;-61
2023/04/18 05:42:52;;;;;;;18.00;9.70;;;;;;;5.43;100.00;94016.38;5007286;28;20044;-60
2023/04/18 05:45:19;;;;;;;16.37;8.97;;;;;;;5.77;100.00;93999.84;5008583;28;20549;-60
2023/04/18 05:47:45;;;;;;;18.10;9.63;;;;;;;5.73;100.00;94001.75;5007726;28;20115;-61
2023/04/18 05:50:12;;;;;;;18.17;9.55;;;;;;;5.93;100.00;94019.34;5008167;28;20053;-61
2023/04/18 05:52:39;;;;;;;16.15;8.48;;;;;;;5.95;100.00;94010.84;5007713;28;20054;-60
2023/04/18 05:55:06;;;;;;;15.77;8.85;;;;;;;5.95;100.00;94019.00;5007977;28;20056;-61
2023/04/18 05:57:33;;;;;;;23.13;9.17;;;;;;;6.06;100.00;94025.28;5007466;28;20042;-62
2023/04/18 06:00:00;;;;;;;16.13;8.73;;;;;;;6.00;100.00;94016.69;5004059;28;20053;-62
2023/04/18 06:02:27;;;;;;;17.42;8.80;;;;;;;6.05;100.00;94020.97;4988045;28;20038;-62
2023/04/18 06:04:55;;;;;;;17.85;8.88;;;;;;;6.00;100.00;94022.16;5000982;28;20100;-63
2023/04/18 06:07:24;;;;;;;19.52;9.60;;;;;;;6.01;100.00;94036.53;4999621;28;20091;-62
2023/04/18 06:09:52;;;;;;;17.57;8.77;;;;;;;6.00;100.00;94024.88;4992031;28;20049;-62
2023/04/18 06:12:19;;;;;;;17.95;9.45;;;;;;;6.00;100.00;94019.41;5009887;28;20499;-61
2023/04/18 06:14:46;;;;;;;16.40;9.32;;;;;;;6.07;100.00;94035.00;5007462;28;20068;-61
2023/04/18 06:17:12;;;;;;;17.45;9.13;;;;;;;5.93;100.00;94037.66;5011888;28;20355;-60
2023/04/18 06:19:39;;;;;;;16.88;9.02;;;;;;;5.99;100.00;94033.41;5011120;28;20084;-62
2023/04/18 06:22:06;;;;;;;15.27;8.33;;;;;;;6.05;100.00;94031.88;5011932;28;20040;-62
2023/04/18 06:24:32;;;;;;;16.60;8.27;;;;;;;5.99;100.00;94033.41;5011527;28;20123;-62
2023/04/18 06:27:00;;;;;;;17.55;8.88;;;;;;;6.05;100.00;94037.34;5010251;28;20034;-62
2023/04/18 06:29:29;;;;;;;16.85;8.27;;;;;;;5.74;100.00;94044.19;5011031;28;20053;-62
2023/04/18 06:31:56;;;;;;;16.60;8.60;;;;;;;6.00;100.00;94048.63;5011889;28;20042;-62
2023/04/18 06:34:23;;;;;;;15.63;8.67;;;;;;;6.01;100.00;94031.09;5011425;28;20050;-62
2023/04/18 06:36:51;;;;;;;14.88;8.48;;;;;;;6.14;100.00;94039.72;5011083;28;20042;-63
2023/04/18 06:39:17;;;;;;;15.15;8.40;;;;;;;6.05;100.00;94034.59;5011531;28;20042;-63
2023/04/18 06:41:44;;;;;;;16.02;8.70;;;;;;;6.09;100.00;94042.81;5009153;28;20038;-61
2023/04/18 06:44:11;;;;;;;15.98;8.95;;;;;;;6.08;100.00;94044.75;5010052;28;20095;-63
2023/04/18 06:46:37;;;;;;;16.07;8.50;;;;;;;6.18;100.00;94040.50;5010931;28;20099;-62
2023/04/18 06:49:04;;;;;;;15.50;7.82;;;;;;;6.27;100.00;94043.63;5009858;28;20041;-62
2023/04/18 06:51:31;;;;;;;16.10;8.57;;;;;;;6.16;100.00;94049.06;5010744;28;20046;-62
2023/04/18 06:53:58;;;;;;;17.27;8.30;;;;;;;6.18;100.00;94051.41;5011111;28;20072;-64
2023/04/18 06:56:25;;;;;;;15.20;8.32;;;;;;;6.08;100.00;94044.75;5009796;28;20092;-63
2023/04/18 06:58:51;;;;;;;15.93;8.00;;;;;;;6.19;100.00;94050.22;5010536;28;20048;-61
2023/04/18 07:01:18;;;;;;;14.38;7.53;;;;;;;5.94;100.00;94050.88;5009600;28;20052;-62
2023/04/18 07:03:45;;;;;;;16.88;8.75;;;;;;;5.93;100.00;94048.53;5009859;28;20061;-61
2023/04/18 07:06:12;;;;;;;16.05;8.30;;;;;;;6.04;100.00;94038.50;5010774;28;20050;-62
2023/04/18 07:08:39;;;;;;;14.80;8.05;;;;;;;6.10;100.00;94049.81;5003409;28;20082;-61
2023/04/18 07:11:05;;;;;;;15.73;8.50;;;;;;;6.27;100.00;94053.75;4991934;28;20068;-60
2023/04/18 07:13:32;;;;;;;15.73;8.15;;;;;;;6.25;100.00;94042.47;5003291;28;20069;-61
2023/04/18 07:16:00;;;;;;;14.32;8.07;;;;;;;6.51;100.00;94042.16;4996745;28;20041;-61
2023/04/18 07:18:27;;;;;;;17.52;9.07;;;;;;;6.31;100.00;94038.97;5010673;28;20091;-60
2023/04/18 07:21:07;;;;;;;17.73;9.60;;;;;;;6.17;100.00;94047.88;5009710;28;20119;-62
2023/04/18 07:23:35;;;;;;;20.03;9.87;;;;;;;6.15;100.00;94050.22;5010139;28;20458;-60
2023/04/18 07:26:02;;;;;;;18.10;9.65;;;;;;;6.46;100.00;94044.47;5010562;28;20137;-60
2023/04/18 07:28:30;;;;;;;18.58;10.30;;;;;;;6.59;100.00;94040.22;5009449;28;20050;-62
2023/04/18 07:30:57;;;;;;;18.50;9.95;;;;;;;6.69;100.00;94047.63;5010566;28;20046;-61
2023/04/18 07:33:24;;;;;;;18.92;10.55;;;;;;;6.58;100.00;94039.44;5010525;28;20038;-62
2023/04/18 07:35:51;;;;;;;19.90;10.53;;;;;;;6.70;100.00;94040.22;5010192;28;20046;-60
2023/04/18 07:38:19;;;;;;;22.38;12.68;;;;;;;6.18;100.00;94037.78;5010453;28;20042;-61
2023/04/18 07:40:46;;;;;;;20.75;11.93;;;;;;;6.43;100.00;94043.28;5009281;28;20045;-60
2023/04/18 07:43:12;;;;;;;22.13;12.30;;;;;;;6.64;100.00;94049.97;5009967;28;20367;-60
2023/04/18 07:45:41;;;;;;;23.38;11.93;;;;;;;6.31;100.00;94052.59;5009565;28;20441;-62
2023/04/18 07:48:08;;;;;;;21.77;12.07;;;;;;;6.46;100.00;94045.25;5010090;28;20080;-61
2023/04/18 07:50:35;;;;;;;23.60;12.80;;;;;;;6.62;100.00;94052.28;5008267;28;20042;-61
2023/04/18 07:53:02;;;;;;;23.38;12.35;;;;;;;6.67;100.00;94055.41;5010029;28;20050;-62
2023/04/18 07:55:29;;;;;;;23.70;12.85;;;;;;;6.58;100.00;94063.22;5009537;28;20060;-62
2023/04/18 07:57:56;;;;;;;22.50;12.18;;;;;;;6.40;100.00;94063.16;5009991;28;20048;-61
2023/04/18 08:00:23;;;;;;;23.10;12.57;;;;;;;6.64;100.00;94060.88;5010078;28;20046;-61
2023/04/18 08:02:50;;;;;;;23.95;12.82;;;;;;;6.69;100.00;94060.50;5008204;28;20038;-61
2023/04/18 08:05:20;;;;;;;22.92;12.75;;;;;;;6.74;100.00;94066.34;5009701;28;20638;-61
2023/04/18 08:07:46;;;;;;;21.48;11.85;;;;;;;6.73;100.00;94072.19;5009281;28;20042;-61
2023/04/18 08:10:13;;;;;;;32.78;15.80;;;;;;;6.59;100.00;94072.94;5003905;28;20249;-61
2023/04/18 08:12:40;;;;;;;25.03;13.27;;;;;;;6.70;100.00;94073.75;5000556;28;20096;-61
2023/04/18 08:15:07;;;;;;;23.75;12.75;;;;;;;6.44;100.00;94068.59;5018245;28;20523;-61
2023/04/18 08:17:35;;;;;;;25.15;13.45;;;;;;;6.65;100.00;94071.38;5008448;28;20038;-60
2023/04/18 08:20:06;;;;;;;24.98;12.68;;;;;;;6.60;100.00;94078.00;5009463;28;20056;-61
2023/04/18 08:22:33;;;;;;;25.15;13.05;;;;;;;6.55;100.00;94077.59;5007715;28;20037;-60
2023/04/18 08:25:00;;;;;;;23.73;12.43;;;;;;;6.20;100.00;94076.34;5009066;28;20060;-60
2023/04/18 08:27:31;;;;;;;24.90;13.32;;;;;;;6.59;100.00;94081.88;5009075;28;20053;-62
2023/04/18 08:29:59;;;;;;;24.58;13.27;;;;;;;6.70;100.00;94079.22;5009295;28;20460;-60
2023/04/18 08:32:26;;;;;;;26.10;14.50;;;;;;;6.32;100.00;94094.28;5009254;28;20103;-60
2023/04/18 08:34:52;;;;;;;28.10;17.52;;;;;;;5.80;100.00;94099.84;5007979;28;20116;-61
2023/04/18 08:37:19;;;;;;;26.07;13.87;;;;;;;6.06;100.00;94093.41;5009037;28;20415;-62
2023/04/18 08:39:46;;;;;;;26.75;13.90;;;;;;;6.27;100.00;94079.06;5008463;28;20042;-60
2023/04/18 08:42:18;;;;;;;31.38;17.70;;;;;;;5.95;100.00;94089.81;5008861;28;20056;-62
2023/04/18 08:44:46;;;;;;;28.75;15.43;;;;;;;6.07;100.00;94081.31;5008462;28;20477;-61
2023/04/18 08:47:13;;;;;;;30.88;15.70;;;;;;;6.14;100.00;94089.53;5008847;28;20060;-60
2023/04/18 08:49:42;;;;;;;26.23;14.00;;;;;;;6.61;100.00;94092.41;5008495;28;20045;-61
2023/04/18 08:52:12;;;;;;;27.98;14.65;;;;;;;6.56;100.00;94090.84;5008800;28;20614;-61
2023/04/18 08:54:44;;;;;;;29.08;16.20;;;;;;;6.57;100.00;94092.41;5008536;28;20050;-60
2023/04/18 08:57:15;;;;;;;28.08;14.57;;;;;;;6.69;100.00;94087.75;5008922;28;20081;-60
2023/04/18 08:59:44;;;;;;;27.15;14.55;;;;;;;6.67;100.00;94095.56;5008504;28;20483;-61
2023/04/18 09:02:14;;;;;;;30.60;15.33;;;;;;;6.45;100.00;94095.50;5008426;28;20079;-61
2023/04/18 09:04:44;;;;;;;27.75;14.90;;;;;;;6.90;100.00;94098.72;5008214;28;20397;-60
2023/04/18 09:07:13;;;;;;;29.38;15.25;;;;;;;6.76;100.00;94098.69;5008669;28;20054;-61
2023/04/18 09:09:52;;;;;;;29.80;16.83;;;;;;;6.04;100.00;94101.16;5007882;28;20457;-61
2023/04/18 09:12:24;;;;;;;28.70;16.00;;;;;;;6.28;100.00;94099.72;5008359;28;20041;-60
2023/04/18 09:15:13;;;;;;;29.47;16.03;;;;;;;6.25;100.00;94114.09;5008118;28;20046;-60
2023/04/18 09:17:42;;;;;;;29.67;15.73;;;;;;;6.66;100.00;94097.50;5004358;28;20054;-61
2023/04/18 09:20:10;;;;;;;25.90;13.80;;;;;;;6.91;100.00;94085.84;4994053;28;20046;-62
2023/04/18 09:22:51;;;;;;;29.83;16.83;;;;;;;6.67;100.00;94092.81;5002371;28;20041;-61
2023/04/18 09:25:36;;;;;;;27.45;14.77;;;;;;;7.04;100.00;94108.84;5006595;28;20045;-60
2023/04/18 09:28:27;;;;;;;28.33;14.60;;;;;;;6.78;100.00;94096.34;5007412;28;20395;-61
2023/04/18 09:31:07;;;;;;;30.95;15.93;;;;;;;6.65;100.00;94098.66;5007371;28;20819;-60
2023/04/18 09:33:35;;;;;;;30.17;16.27;;;;;;;6.68;100.00;94092.44;5006323;28;20399;-61
2023/04/18 09:36:30;;;;;;;32.28;18.90;;;;;;;6.24;100.00;94096.19;5008224;28;20058;-62
2023/04/18 09:38:57;;;;;;;28.50;15.20;;;;;;;6.69;100.00;94095.94;4998091;28;20290;-61
2023/04/18 09:41:23;;;;;;;32.47;17.00;;;;;;;6.87;100.00;94096.00;5007883;28;20058;-60
2023/04/18 09:44:08;;;;;;;34.03;16.65;;;;;;;7.11;100.00;94100.69;5007761;28;20049;-60
2023/04/18 09:46:39;;;;;;;31.92;16.27;;;;;;;7.37;100.00;94102.25;5007626;28;20045;-60
2023/04/18 09:49:06;;;;;;;29.58;16.27;;;;;;;7.25;100.00;94119.03;5007921;28;20058;-60
2023/04/18 09:51:39;;;;;;;30.42;16.42;;;;;;;6.55;100.00;94104.88;5007233;28;20103;-60
2023/04/18 09:54:08;;;;;;;30.13;15.90;;;;;;;6.60;100.00;94110.72;5008213;28;20549;-59
2023/04/18 09:56:36;;;;;;;28.90;15.70;;;;;;;6.89;100.00;94101.84;5007549;28;20105;-60
2023/04/18 09:59:08;;;;;;;31.90;17.25;;;;;;;7.12;100.00;94104.19;5008536;28;20482;-60
2023/04/18 10:01:35;;;;;;;33.10;16.42;;;;;;;7.17;100.00;94101.09;5007342;28;20042;-60
2023/04/18 10:04:05;;;;;;;33.13;17.00;;;;;;;7.26;100.00;94103.44;5006427;28;20361;-61
2023/04/18 10:06:40;;;;;;;33.47;17.20;;;;;;;7.43;100.00;94099.94;5007747;28;20053;-60
2023/04/18 10:09:08;;;;;;;30.40;15.93;;;;;;;7.65;100.00;94114.34;5008101;28;20050;-61
2023/04/18 10:11:35;;;;;;;31.67;16.92;;;;;;;7.52;100.00;94105.75;5007071;28;20053;-61
2023/04/18 10:14:06;;;;;;;32.20;16.50;;;;;;;7.85;100.00;94109.25;5007760;28;20050;-60
2023/04/18 10:16:34;;;;;;;32.53;17.25;;;;;;;7.63;100.00;94107.72;5007462;28;20081;-60
2023/04/18 10:19:31;;;;;;;30.10;15.97;;;;;;;7.38;100.00;94101.09;4992631;28;20054;-61
2023/04/18 10:22:00;;;;;;;30.77;16.75;;;;;;;7.66;100.00;94112.38;4992248;28;20729;-61
2023/04/18 10:24:48;;;;;;;31.77;16.85;;;;;;;7.83;100.00;94105.31;5008000;28;20104;-62
2023/04/18 10:27:16;;;;;;;30.67;16.73;;;;;;;7.44;100.00;94098.75;5006762;28;20613;-61
2023/04/18 10:29:53;;;;;;;30.38;16.95;;;;;;;7.35;100.00;94101.09;5007288;28;20249;-61
2023/04/18 10:32:22;;;;;;;32.37;17.80;;;;;;;7.68;100.00;94108.09;5007621;28;20046;-61
2023/04/18 10:34:52;;;;;;;31.15;17.92;;;;;;;7.97;100.00;94105.31;5006886;28;20050;-61
2023/04/18 10:37:19;;;;;;;32.17;17.83;;;;;;;8.22;100.00;94102.50;5007726;28;20060;-61
2023/04/18 10:39:47;;;;;;;34.35;17.40;;;;;;;8.26;100.00;94099.75;5006838;28;20107;-63
2023/04/18 10:42:13;;;;;;;31.75;18.23;;;;;;;8.68;100.00;94095.31;5007125;28;20050;-61
2023/04/18 10:44:40;;;;;;;28.07;16.13;;;;;;;8.60;100.00;94089.09;5007052;28;20141;-61
2023/04/18 10:47:07;;;;;;;27.98;16.20;;;;;;;8.78;100.00;94087.03;5007590;28;20053;-62
2023/04/18 10:49:36;;;;;;;28.13;16.80;;;;;;;8.81;100.00;94077.25;5006896;28;20072;-62
2023/04/18 10:52:07;;;;;;;26.80;16.02;;;;;;;9.18;100.00;94078.59;5007548;28;20048;-61
2023/04/18 10:54:37;;;;;;;28.33;16.77;;;;;;;8.28;100.00;94083.75;5007029;28;20058;-61
2023/04/18 10:57:06;;;;;;;27.87;15.57;;;;;;;9.18;100.00;94086.81;5007593;28;20505;-61
2023/04/18 10:59:37;;;;;;;27.52;16.10;;;;;;;9.24;100.00;94085.19;5007095;28;20548;-61
2023/04/18 11:02:25;;;;;;;27.33;16.23;;;;;;;9.41;100.00;94083.47;5007977;28;20044;-62
2023/04/18 11:04:53;;;;;;;26.60;15.18;;;;;;;9.92;100.00;94073.63;5010410;28;20072;-61
2023/04/18 11:07:33;;;;;;;26.95;16.55;;;;;;;9.43;100.00;94067.41;5010989;28;20411;-62
2023/04/18 11:10:00;;;;;;;25.80;16.10;;;;;;;9.77;100.00;94072.22;5010029;28;20275;-61
2023/04/18 11:12:31;;;;;;;25.90;15.63;;;;;;;9.94;100.00;94073.22;5009010;28;20050;-62
2023/04/18 11:15:02;;;;;;;26.58;15.85;;;;;;;9.96;100.00;94068.09;5010863;28;20042;-62
2023/04/18 11:17:31;;;;;;;24.67;15.32;;;;;;;10.03;100.00;94072.75;5006760;28;20046;-62
2023/04/18 11:20:10;;;;;;;24.88;15.63;;;;;;;9.37;100.00;94071.78;4991393;28;20411;-61
2023/04/18 11:22:48;;;;;;;22.67;14.07;;;;;;;9.87;100.00;94065.84;5004108;28;20068;-62
2023/04/18 11:25:15;;;;;;;25.33;15.77;;;;;;;10.17;100.00;94069.84;5010678;28;20638;-62
2023/04/18 11:27:46;;;;;;;23.40;15.07;;;;;;;10.44;100.00;94061.69;5008962;28;20050;-62